sensor_id;sensor_type;location;lat;lon;timestamp;pressure;altitude;pressure_sealevel;temperature;humidity
46836;BME280;32573;51.290;6.926;2023-10-08T00:02:26;100868.28;;;18.94;100.00
46836;BME280;32573;51.290;6.926;2023-10-08T00:04:55;100863.00;;;18.92;100.00
46836;BME280;32573;51.290;6.926;2023-10-08T00:07:27;100868.31;;;18.92;100.00
46836;BME280;32573;51.290;6.926;2023-10-08T00:10:01;100868.28;;;18.91;100.00
46836;BME280;32573;51.290;6.926;2023-10-08T00:12:33;100866.53;;;18.90;100.00
46836;BME280;32573;51.290;6.926;2023-10-08T00:15:03;100865.59;;;18.89;100.00
46836;BME280;32573;51.290;6.926;2023-10-08T00:17:35;100870.03;;;18.89;100.00
46836;BME280;32573;51.290;6.926;2023-10-08T00:20:05;100880.66;;;18.89;100.00
46836;BME280;32573;51.290;6.926;2023-10-08T00:22:38;100888.63;;;18.87;100.00
46836;BME280;32573;51.290;6.926;2023-10-08T00:25:09;100893.00;;;18.87;100.00
46836;BME280;32573;51.290;6.926;2023-10-08T00:27:40;100896.56;;;18.86;100.00
46836;BME280;32573;51.290;6.926;2023-10-08T00:30:11;100894.81;;;18.85;100.00
46836;BME280;32573;51.290;6.926;2023-10-08T00:32:46;100877.97;;;18.84;100.00
46836;BME280;32573;51.290;6.926;2023-10-08T00:35:15;100867.38;;;18.83;100.00
46836;BME280;32573;51.290;6.926;2023-10-08T00:37:53;100868.22;;;18.82;100.00
46836;BME280;32573;51.290;6.926;2023-10-08T00:40:36;100870.88;;;18.80;100.00
46836;BME280;32573;51.290;6.926;2023-10-08T00:43:06;100872.66;;;18.80;100.00
46836;BME280;32573;51.290;6.926;2023-10-08T00:45:38;100881.47;;;18.79;100.00
46836;BME280;32573;51.290;6.926;2023-10-08T00:48:12;100882.38;;;18.78;100.00
46836;BME280;32573;51.290;6.926;2023-10-08T00:50:46;100885.88;;;18.77;100.00
46836;BME280;32573;51.290;6.926;2023-10-08T00:53:17;100882.38;;;18.78;100.00
46836;BME280;32573;51.290;6.926;2023-10-08T00:55:50;100898.28;;;18.78;100.00
46836;BME280;32573;51.290;6.926;2023-10-08T00:58:27;100892.09;;;18.75;100.00
46836;BME280;32573;51.290;6.926;2023-10-08T01:00:58;100887.59;;;18.74;100.00
46836;BME280;32573;51.290;6.926;2023-10-08T01:03:29;100882.28;;;18.74;100.00
46836;BME280;32573;51.290;6.926;2023-10-08T01:06:04;100885.81;;;18.72;100.00
46836;BME280;32573;51.290;6.926;2023-10-08T01:08:44;100882.28;;;18.71;100.00
46836;BME280;32573;51.290;6.926;2023-10-08T01:11:20;100876.09;;;18.71;100.00
46836;BME280;32573;51.290;6.926;2023-10-08T01:13:59;100872.53;;;18.69;100.00
46836;BME280;32573;51.290;6.926;2023-10-08T01:16:29;100878.72;;;18.66;100.00
46836;BME280;32573;51.290;6.926;2023-10-08T01:19:02;100892.88;;;18.65;100.00
46836;BME280;32573;51.290;6.926;2023-10-08T01:21:32;100895.50;;;18.64;100.00
46836;BME280;32573;51.290;6.926;2023-10-08T01:24:09;100906.13;;;18.62;100.00
46836;BME280;32573;51.290;6.926;2023-10-08T01:26:45;100906.06;;;18.59;100.00
46836;BME280;32573;51.290;6.926;2023-10-08T01:29:15;100907.84;;;18.57;100.00
46836;BME280;32573;51.290;6.926;2023-10-08T01:31:48;100913.09;;;18.54;100.00
46836;BME280;32573;51.290;6.926;2023-10-08T01:34:17;100910.44;;;18.51;100.00
46836;BME280;32573;51.290;6.926;2023-10-08T01:36:56;100893.63;;;18.49;100.00
46836;BME280;32573;51.290;6.926;2023-10-08T01:39:31;100901.56;;;18.46;100.00
46836;BME280;32573;51.290;6.926;2023-10-08T01:42:01;100908.63;;;18.44;100.00
46836;BME280;32573;51.290;6.926;2023-10-08T01:44:33;100901.53;;;18.41;100.00
46836;BME280;32573;51.290;6.926;2023-10-08T01:47:02;100897.97;;;18.39;100.00
46836;BME280;32573;51.290;6.926;2023-10-08T01:49:34;100900.59;;;18.36;100.00
46836;BME280;32573;51.290;6.926;2023-10-08T01:52:07;100899.69;;;18.32;100.00
46836;BME280;32573;51.290;6.926;2023-10-08T01:54:49;100894.34;;;18.29;100.00
46836;BME280;32573;51.290;6.926;2023-10-08T01:57:22;100898.78;;;18.27;100.00
46836;BME280;32573;51.290;6.926;2023-10-08T01:59:53;100904.06;;;18.26;100.00
46836;BME280;32573;51.290;6.926;2023-10-08T02:02:23;100901.38;;;18.24;100.00
46836;BME280;32573;51.290;6.926;2023-10-08T02:04:53;100899.63;;;18.23;100.00
46836;BME280;32573;51.290;6.926;2023-10-08T02:07:24;100898.72;;;18.21;100.00
46836;BME280;32573;51.290;6.926;2023-10-08T02:09:54;100899.59;;;18.20;100.00
46836;BME280;32573;51.290;6.926;2023-10-08T02:12:25;100900.44;;;18.19;100.00
46836;BME280;32573;51.290;6.926;2023-10-08T02:14:56;100911.94;;;18.18;100.00
46836;BME280;32573;51.290;6.926;2023-10-08T02:17:29;100900.44;;;18.15;100.00
46836;BME280;32573;51.290;6.926;2023-10-08T02:20:01;100902.19;;;18.14;100.00
46836;BME280;32573;51.290;6.926;2023-10-08T02:22:33;100913.63;;;18.11;100.00
46836;BME280;32573;51.290;6.926;2023-10-08T02:25:05;100905.69;;;18.10;100.00
46836;BME280;32573;51.290;6.926;2023-10-08T02:27:36;100909.19;;;18.09;100.00
46836;BME280;32573;51.290;6.926;2023-10-08T02:30:08;100895.97;;;18.07;100.00
46836;BME280;32573;51.290;6.926;2023-10-08T02:32:40;100887.97;;;18.06;100.00
46836;BME280;32573;51.290;6.926;2023-10-08T02:35:11;100885.31;;;18.06;100.00
46836;BME280;32573;51.290;6.926;2023-10-08T02:37:41;100868.53;;;18.04;100.00
46836;BME280;32573;51.290;6.926;2023-10-08T02:40:16;100879.13;;;18.02;100.00
46836;BME280;32573;51.290;6.926;2023-10-08T02:42:48;100864.97;;;18.00;100.00
46836;BME280;32573;51.290;6.926;2023-10-08T02:45:25;100868.47;;;17.98;100.00
46836;BME280;32573;51.290;6.926;2023-10-08T02:47:59;100874.63;;;17.97;100.00
46836;BME280;32573;51.290;6.926;2023-10-08T02:50:28;100885.22;;;17.94;100.00
46836;BME280;32573;51.290;6.926;2023-10-08T02:53:01;100894.06;;;17.93;100.00
46836;BME280;32573;51.290;6.926;2023-10-08T02:55:41;100907.25;;;17.89;100.00
46836;BME280;32573;51.290;6.926;2023-10-08T02:58:11;100898.41;;;17.87;100.00
46836;BME280;32573;51.290;6.926;2023-10-08T03:00:45;100903.69;;;17.86;100.00
46836;BME280;32573;51.290;6.926;2023-10-08T03:03:16;100895.72;;;17.84;100.00
46836;BME280;32573;51.290;6.926;2023-10-08T03:05:48;100892.19;;;17.82;100.00
46836;BME280;32573;51.290;6.926;2023-10-08T03:08:22;100899.22;;;17.80;100.00
46836;BME280;32573;51.290;6.926;2023-10-08T03:10:54;100912.41;;;17.79;100.00
46836;BME280;32573;51.290;6.926;2023-10-08T03:13:25;100916.81;;;17.78;100.00
46836;BME280;32573;51.290;6.926;2023-10-08T03:15:55;100929.16;;;17.76;100.00
46836;BME280;32573;51.290;6.926;2023-10-08T03:18:37;100924.75;;;17.75;100.00
46836;BME280;32573;51.290;6.926;2023-10-08T03:21:11;100908.81;;;17.74;100.00
46836;BME280;32573;51.290;6.926;2023-10-08T03:23:52;100886.75;;;17.73;100.00
46836;BME280;32573;51.290;6.926;2023-10-08T03:26:28;100894.69;;;17.73;100.00
46836;BME280;32573;51.290;6.926;2023-10-08T03:29:05;100903.50;;;17.72;100.00
46836;BME280;32573;51.290;6.926;2023-10-08T03:31:37;100920.25;;;17.71;100.00
46836;BME280;32573;51.290;6.926;2023-10-08T03:34:20;100936.13;;;17.68;100.00
46836;BME280;32573;51.290;6.926;2023-10-08T03:36:55;100944.03;;;17.66;100.00
46836;BME280;32573;51.290;6.926;2023-10-08T03:39:34;100941.41;;;17.65;100.00
46836;BME280;32573;51.290;6.926;2023-10-08T03:42:22;100937.84;;;17.63;100.00
46836;BME280;32573;51.290;6.926;2023-10-08T03:44:52;100944.00;;;17.63;100.00
46836;BME280;32573;51.290;6.926;2023-10-08T03:47:24;100927.25;;;17.63;100.00
46836;BME280;32573;51.290;6.926;2023-10-08T03:49:55;100920.16;;;17.62;100.00
46836;BME280;32573;51.290;6.926;2023-10-08T03:52:37;100907.78;;;17.61;100.00
46836;BME280;32573;51.290;6.926;2023-10-08T03:55:07;100908.69;;;17.61;100.00
46836;BME280;32573;51.290;6.926;2023-10-08T03:57:50;100896.31;;;17.60;100.00
46836;BME280;32573;51.290;6.926;2023-10-08T04:00:25;100910.41;;;17.59;100.00
46836;BME280;32573;51.290;6.926;2023-10-08T04:03:00;100885.69;;;17.59;100.00
46836;BME280;32573;51.290;6.926;2023-10-08T04:05:37;100884.81;;;17.58;100.00
46836;BME280;32573;51.290;6.926;2023-10-08T04:08:29;100874.22;;;17.57;100.00
46836;BME280;32573;51.290;6.926;2023-10-08T04:11:11;100926.28;;;17.56;100.00
46836;BME280;32573;51.290;6.926;2023-10-08T04:14:00;100928.91;;;17.53;100.00
46836;BME280;32573;51.290;6.926;2023-10-08T04:16:32;100897.09;;;17.52;100.00
46836;BME280;32573;51.290;6.926;2023-10-08T04:19:04;100918.28;;;17.52;100.00
46836;BME280;32573;51.290;6.926;2023-10-08T04:21:36;100928.88;;;17.50;100.00
46836;BME280;32573;51.290;6.926;2023-10-08T04:24:08;100935.88;;;17.50;100.00
46836;BME280;32573;51.290;6.926;2023-10-08T04:26:38;100938.53;;;17.50;100.00
46836;BME280;32573;51.290;6.926;2023-10-08T04:29:10;100943.84;;;17.50;100.00
46836;BME280;32573;51.290;6.926;2023-10-08T04:31:44;100934.13;;;17.49;100.00
46836;BME280;32573;51.290;6.926;2023-10-08T04:34:14;100953.53;;;17.48;100.00
46836;BME280;32573;51.290;6.926;2023-10-08T04:36:45;100950.88;;;17.46;100.00
46836;BME280;32573;51.290;6.926;2023-10-08T04:39:14;100960.56;;;17.45;100.00
46836;BME280;32573;51.290;6.926;2023-10-08T04:41:49;100945.56;;;17.46;100.00
46836;BME280;32573;51.290;6.926;2023-10-08T04:44:23;100949.94;;;17.44;100.00
46836;BME280;32573;51.290;6.926;2023-10-08T04:46:53;100942.88;;;17.44;100.00
46836;BME280;32573;51.290;6.926;2023-10-08T04:49:24;100934.09;;;17.45;100.00
46836;BME280;32573;51.290;6.926;2023-10-08T04:52:02;100937.59;;;17.44;100.00
46836;BME280;32573;51.290;6.926;2023-10-08T04:54:37;100946.44;;;17.46;100.00
46836;BME280;32573;51.290;6.926;2023-10-08T04:57:08;100934.97;;;17.46;100.00
46836;BME280;32573;51.290;6.926;2023-10-08T04:59:48;100927.00;;;17.44;100.00
46836;BME280;32573;51.290;6.926;2023-10-08T05:02:19;100926.16;;;17.45;100.00
46836;BME280;32573;51.290;6.926;2023-10-08T05:04:50;100928.81;;;17.45;100.00
46836;BME280;32573;51.290;6.926;2023-10-08T05:07:49;100930.53;;;17.43;100.00
46836;BME280;32573;51.290;6.926;2023-10-08T05:10:45;100936.72;;;17.42;100.00
46836;BME280;32573;51.290;6.926;2023-10-08T05:13:29;100958.75;;;17.41;100.00
46836;BME280;32573;51.290;6.926;2023-10-08T05:16:14;100960.47;;;17.39;100.00
46836;BME280;32573;51.290;6.926;2023-10-08T05:19:03;100982.53;;;17.38;100.00
46836;BME280;32573;51.290;6.926;2023-10-08T05:21:53;100977.19;;;17.37;100.00
46836;BME280;32573;51.290;6.926;2023-10-08T05:24:47;100986.03;;;17.36;100.00
46836;BME280;32573;51.290;6.926;2023-10-08T05:27:37;100993.94;;;17.34;100.00
46836;BME280;32573;51.290;6.926;2023-10-08T05:30:26;101006.31;;;17.35;100.00
46836;BME280;32573;51.290;6.926;2023-10-08T05:33:08;101013.34;;;17.33;100.00
46836;BME280;32573;51.290;6.926;2023-10-08T05:35:55;101013.31;;;17.32;100.00
46836;BME280;32573;51.290;6.926;2023-10-08T05:38:38;101015.94;;;17.32;100.00
46836;BME280;32573;51.290;6.926;2023-10-08T05:41:16;101020.34;;;17.31;100.00
46836;BME280;32573;51.290;6.926;2023-10-08T05:43:59;101008.91;;;17.32;100.00
46836;BME280;32573;51.290;6.926;2023-10-08T05:46:53;100986.84;;;17.30;100.00
46836;BME280;32573;51.290;6.926;2023-10-08T05:49:41;100985.94;;;17.30;100.00
46836;BME280;32573;51.290;6.926;2023-10-08T05:52:23;100968.28;;;17.29;100.00
46836;BME280;32573;51.290;6.926;2023-10-08T05:55:09;100964.75;;;17.28;100.00
46836;BME280;32573;51.290;6.926;2023-10-08T05:57:53;100963.88;;;17.28;100.00
46836;BME280;32573;51.290;6.926;2023-10-08T06:00:42;100974.41;;;17.26;100.00
46836;BME280;32573;51.290;6.926;2023-10-08T06:03:36;100980.59;;;17.25;100.00
46836;BME280;32573;51.290;6.926;2023-10-08T06:06:10;100976.16;;;17.24;100.00
46836;BME280;32573;51.290;6.926;2023-10-08T06:09:05;100968.22;;;17.22;100.00
46836;BME280;32573;51.290;6.926;2023-10-08T06:12:05;100974.34;;;17.21;100.00
46836;BME280;32573;51.290;6.926;2023-10-08T06:14:47;100980.53;;;17.20;100.00
46836;BME280;32573;51.290;6.926;2023-10-08T06:17:43;100980.53;;;17.20;100.00
46836;BME280;32573;51.290;6.926;2023-10-08T06:20:35;100994.59;;;17.19;100.00
46836;BME280;32573;51.290;6.926;2023-10-08T06:23:10;100983.13;;;17.19;100.00
46836;BME280;32573;51.290;6.926;2023-10-08T06:25:45;100975.19;;;17.19;100.00
46836;BME280;32573;51.290;6.926;2023-10-08T06:28:19;100998.13;;;17.18;100.00
46836;BME280;32573;51.290;6.926;2023-10-08T06:30:51;101015.78;;;17.19;100.00
46836;BME280;32573;51.290;6.926;2023-10-08T06:33:23;101012.25;;;17.19;100.00
46836;BME280;32573;51.290;6.926;2023-10-08T06:35:59;101014.88;;;17.19;100.00
46836;BME280;32573;51.290;6.926;2023-10-08T06:38:33;101032.53;;;17.18;100.00
46836;BME280;32573;51.290;6.926;2023-10-08T06:41:06;101025.47;;;17.19;100.00
46836;BME280;32573;51.290;6.926;2023-10-08T06:43:40;101017.56;;;17.20;100.00
46836;BME280;32573;51.290;6.926;2023-10-08T06:46:15;101018.44;;;17.21;100.00
46836;BME280;32573;51.290;6.926;2023-10-08T06:48:53;101007.88;;;17.21;100.00
46836;BME280;32573;51.290;6.926;2023-10-08T06:51:23;101010.56;;;17.22;100.00
46836;BME280;32573;51.290;6.926;2023-10-08T06:53:56;100999.97;;;17.22;100.00
46836;BME280;32573;51.290;6.926;2023-10-08T06:56:30;100988.47;;;17.22;100.00
46836;BME280;32573;51.290;6.926;2023-10-08T06:59:02;100995.56;;;17.23;100.00
46836;BME280;32573;51.290;6.926;2023-10-08T07:01:34;101033.47;;;17.23;100.00
46836;BME280;32573;51.290;6.926;2023-10-08T07:04:08;101030.84;;;17.23;100.00
46836;BME280;32573;51.290;6.926;2023-10-08T07:06:44;101030.88;;;17.25;100.00
46836;BME280;32573;51.290;6.926;2023-10-08T07:09:18;101044.06;;;17.23;100.00
46836;BME280;32573;51.290;6.926;2023-10-08T07:11:59;101045.84;;;17.24;100.00
46836;BME280;32573;51.290;6.926;2023-10-08T07:14:34;101046.75;;;17.25;100.00
46836;BME280;32573;51.290;6.926;2023-10-08T07:17:04;101034.41;;;17.27;100.00
46836;BME280;32573;51.290;6.926;2023-10-08T07:19:38;101039.69;;;17.27;100.00
46836;BME280;32573;51.290;6.926;2023-10-08T07:22:10;101047.66;;;17.29;100.00
46836;BME280;32573;51.290;6.926;2023-10-08T07:24:53;101049.44;;;17.30;100.00
46836;BME280;32573;51.290;6.926;2023-10-08T07:27:26;101065.34;;;17.31;100.00
46836;BME280;32573;51.290;6.926;2023-10-08T07:30:01;101072.41;;;17.32;100.00
46836;BME280;32573;51.290;6.926;2023-10-08T07:32:38;101082.16;;;17.33;100.00
46836;BME280;32573;51.290;6.926;2023-10-08T07:35:09;101081.28;;;17.34;100.00
46836;BME280;32573;51.290;6.926;2023-10-08T07:37:53;101080.41;;;17.35;100.00
46836;BME280;32573;51.290;6.926;2023-10-08T07:40:27;101066.31;;;17.36;100.00
46836;BME280;32573;51.290;6.926;2023-10-08T07:42:59;101073.41;;;17.37;100.00
46836;BME280;32573;51.290;6.926;2023-10-08T07:45:37;101069.00;;;17.39;100.00
46836;BME280;32573;51.290;6.926;2023-10-08T07:48:11;101062.84;;;17.40;100.00
46836;BME280;32573;51.290;6.926;2023-10-08T07:50:43;101057.56;;;17.42;100.00
46836;BME280;32573;51.290;6.926;2023-10-08T07:53:14;101060.22;;;17.42;100.00
46836;BME280;32573;51.290;6.926;2023-10-08T07:55:50;101069.91;;;17.41;100.00
46836;BME280;32573;51.290;6.926;2023-10-08T07:58:22;101069.03;;;17.41;100.00
46836;BME280;32573;51.290;6.926;2023-10-08T08:00:53;101075.22;;;17.41;100.00
46836;BME280;32573;51.290;6.926;2023-10-08T08:03:27;101079.63;;;17.41;100.00
46836;BME280;32573;51.290;6.926;2023-10-08T08:05:58;101080.53;;;17.43;100.00
46836;BME280;32573;51.290;6.926;2023-10-08T08:08:29;101085.84;;;17.44;100.00
46836;BME280;32573;51.290;6.926;2023-10-08T08:11:01;101083.22;;;17.46;100.00
46836;BME280;32573;51.290;6.926;2023-10-08T08:13:36;101077.03;;;17.45;100.00
46836;BME280;32573;51.290;6.926;2023-10-08T08:16:08;101083.22;;;17.46;100.00
46836;BME280;32573;51.290;6.926;2023-10-08T08:18:45;101077.03;;;17.45;100.00
46836;BME280;32573;51.290;6.926;2023-10-08T08:21:18;101079.72;;;17.49;100.00
46836;BME280;32573;51.290;6.926;2023-10-08T08:23:51;101088.63;;;17.54;100.00
46836;BME280;32573;51.290;6.926;2023-10-08T08:26:37;101089.53;;;17.56;100.00
46836;BME280;32573;51.290;6.926;2023-10-08T08:29:13;101090.50;;;17.61;100.00
46836;BME280;32573;51.290;6.926;2023-10-08T08:31:44;101082.59;;;17.64;100.00
46836;BME280;32573;51.290;6.926;2023-10-08T08:34:15;101090.56;;;17.65;100.00
46836;BME280;32573;51.290;6.926;2023-10-08T08:36:49;101100.31;;;17.68;100.00
46836;BME280;32573;51.290;6.926;2023-10-08T08:39:19;101111.81;;;17.72;100.00
46836;BME280;32573;51.290;6.926;2023-10-08T08:42:03;101113.63;;;17.73;100.00
46836;BME280;32573;51.290;6.926;2023-10-08T08:44:36;101118.06;;;17.75;100.00
46836;BME280;32573;51.290;6.926;2023-10-08T08:47:13;101102.19;;;17.75;100.00
46836;BME280;32573;51.290;6.926;2023-10-08T08:49:46;101104.81;;;17.77;100.00
46836;BME280;32573;51.290;6.926;2023-10-08T08:52:21;101095.16;;;17.77;100.00
46836;BME280;32573;51.290;6.926;2023-10-08T08:54:51;101093.38;;;17.79;100.00
46836;BME280;32573;51.290;6.926;2023-10-08T08:57:23;101098.78;;;17.82;100.00
46836;BME280;32573;51.290;6.926;2023-10-08T08:59:58;101104.97;;;17.84;100.00
46836;BME280;32573;51.290;6.926;2023-10-08T09:02:30;101099.72;;;17.87;100.00
46836;BME280;32573;51.290;6.926;2023-10-08T09:05:01;101098.84;;;17.88;100.00
46836;BME280;32573;51.290;6.926;2023-10-08T09:07:53;101102.41;;;17.91;100.00
46836;BME280;32573;51.290;6.926;2023-10-08T09:10:25;101116.53;;;17.91;100.00
46836;BME280;32573;51.290;6.926;2023-10-08T09:12:59;101127.16;;;17.93;100.00
46836;BME280;32573;51.290;6.926;2023-10-08T09:15:34;101120.13;;;17.95;100.00
46836;BME280;32573;51.290;6.926;2023-10-08T09:18:05;101120.16;;;17.98;100.00
46836;BME280;32573;51.290;6.926;2023-10-08T09:20:38;101123.78;;;18.03;100.00
46836;BME280;32573;51.290;6.926;2023-10-08T09:23:14;101132.63;;;18.05;100.00
46836;BME280;32573;51.290;6.926;2023-10-08T09:25:47;101134.44;;;18.07;100.00
46836;BME280;32573;51.290;6.926;2023-10-08T09:28:24;101150.34;;;18.09;100.00
46836;BME280;32573;51.290;6.926;2023-10-08T09:30:58;101150.34;;;18.09;100.00
46836;BME280;32573;51.290;6.926;2023-10-08T09:33:29;101149.47;;;18.11;100.00
46836;BME280;32573;51.290;6.926;2023-10-08T09:36:03;101152.16;;;18.13;100.00
46836;BME280;32573;51.290;6.926;2023-10-08T09:38:35;101150.44;;;18.15;100.00
46836;BME280;32573;51.290;6.926;2023-10-08T09:41:05;101154.00;;;18.17;100.00
46836;BME280;32573;51.290;6.926;2023-10-08T09:43:41;101157.53;;;18.18;100.00
46836;BME280;32573;51.290;6.926;2023-10-08T09:46:13;101156.66;;;18.19;100.00
46836;BME280;32573;51.290;6.926;2023-10-08T09:48:50;101160.19;;;18.18;100.00
46836;BME280;32573;51.290;6.926;2023-10-08T09:51:24;101163.75;;;18.20;100.00
46836;BME280;32573;51.290;6.926;2023-10-08T09:54:02;101157.59;;;18.22;100.00
46836;BME280;32573;51.290;6.926;2023-10-08T09:56:39;101154.06;;;18.23;100.00
46836;BME280;32573;51.290;6.926;2023-10-08T09:59:16;101154.06;;;18.23;100.00
46836;BME280;32573;51.290;6.926;2023-10-08T10:01:49;101154.09;;;18.26;100.00
46836;BME280;32573;51.290;6.926;2023-10-08T10:04:25;101145.28;;;18.29;100.00
46836;BME280;32573;51.290;6.926;2023-10-08T10:06:58;101141.78;;;18.31;100.00
46836;BME280;32573;51.290;6.926;2023-10-08T10:09:28;101141.84;;;18.36;100.00
46836;BME280;32573;51.290;6.926;2023-10-08T10:12:02;101140.13;;;18.40;100.00
46836;BME280;32573;51.290;6.926;2023-10-08T10:14:42;101138.38;;;18.42;100.00
46836;BME280;32573;51.290;6.926;2023-10-08T10:17:14;101139.28;;;18.44;100.00
46836;BME280;32573;51.290;6.926;2023-10-08T10:20:10;101140.22;;;18.47;100.00
46836;BME280;32573;51.290;6.926;2023-10-08T10:22:43;101133.19;;;18.51;100.00
46836;BME280;32573;51.290;6.926;2023-10-08T10:25:16;101135.00;;;18.55;100.00
46836;BME280;32573;51.290;6.926;2023-10-08T10:28:26;101133.28;;;18.60;100.00
46836;BME280;32573;51.290;6.926;2023-10-08T10:30:58;101137.75;;;18.66;100.00
46836;BME280;32573;51.290;6.926;2023-10-08T10:33:32;101142.22;;;18.71;100.00
46836;BME280;32573;51.290;6.926;2023-10-08T10:36:09;101139.66;;;18.76;100.00
46836;BME280;32573;51.290;6.926;2023-10-08T10:38:41;101143.25;;;18.80;100.00
46836;BME280;32573;51.290;6.926;2023-10-08T10:41:12;101148.63;;;18.87;100.00
46836;BME280;32573;51.290;6.926;2023-10-08T10:43:53;101153.97;;;18.92;100.00
46836;BME280;32573;51.290;6.926;2023-10-08T10:46:25;101156.66;;;18.95;100.00
46836;BME280;32573;51.290;6.926;2023-10-08T10:49:00;101149.63;;;18.99;100.00
46836;BME280;32573;51.290;6.926;2023-10-08T10:51:47;101147.91;;;19.02;100.00
46836;BME280;32573;51.290;6.926;2023-10-08T10:54:17;101141.72;;;19.05;100.00
46836;BME280;32573;51.290;6.926;2023-10-08T10:56:54;101154.09;;;19.06;100.00
46836;BME280;32573;51.290;6.926;2023-10-08T10:59:33;101161.19;;;19.05;100.00
46836;BME280;32573;51.290;6.926;2023-10-08T11:02:13;101158.53;;;19.07;100.00
46836;BME280;32573;51.290;6.926;2023-10-08T11:04:50;101159.44;;;19.07;100.00
46836;BME280;32573;51.290;6.926;2023-10-08T11:07:23;101170.06;;;19.07;100.00
46836;BME280;32573;51.290;6.926;2023-10-08T11:09:54;101159.44;;;19.09;100.00
46836;BME280;32573;51.290;6.926;2023-10-08T11:12:25;101166.53;;;19.11;100.00
46836;BME280;32573;51.290;6.926;2023-10-08T11:15:12;101157.72;;;19.15;100.00
46836;BME280;32573;51.290;6.926;2023-10-08T11:17:46;101152.44;;;19.17;100.00
46836;BME280;32573;51.290;6.926;2023-10-08T11:20:24;101160.41;;;19.18;100.00
46836;BME280;32573;51.290;6.926;2023-10-08T11:22:55;101155.09;;;19.18;100.00
46836;BME280;32573;51.290;6.926;2023-10-08T11:25:55;101152.44;;;19.18;100.00
46836;BME280;32573;51.290;6.926;2023-10-08T11:28:28;101151.53;;;19.16;100.00
46836;BME280;32573;51.290;6.926;2023-10-08T11:31:01;101151.53;;;19.16;100.00
46836;BME280;32573;51.290;6.926;2023-10-08T11:33:41;101148.03;;;19.17;100.00
46836;BME280;32573;51.290;6.926;2023-10-08T11:36:23;101142.72;;;19.17;100.00
46836;BME280;32573;51.290;6.926;2023-10-08T11:38:57;101142.75;;;19.21;100.00
46836;BME280;32573;51.290;6.926;2023-10-08T11:41:30;101148.06;;;19.24;100.00
46836;BME280;32573;51.290;6.926;2023-10-08T11:44:18;101141.91;;;19.28;100.00
46836;BME280;32573;51.290;6.926;2023-10-08T11:46:52;101145.47;;;19.31;100.00
46836;BME280;32573;51.290;6.926;2023-10-08T11:49:31;101152.59;;;19.35;100.00
46836;BME280;32573;51.290;6.926;2023-10-08T11:52:04;101146.41;;;19.38;100.00
46836;BME280;32573;51.290;6.926;2023-10-08T11:54:39;101139.34;;;19.40;100.00
46836;BME280;32573;51.290;6.926;2023-10-08T11:57:11;101137.59;;;19.42;100.00
46836;BME280;32573;51.290;6.926;2023-10-08T11:59:41;101141.13;;;19.44;100.00
46836;BME280;32573;51.290;6.926;2023-10-08T12:02:12;101136.75;;;19.45;100.00
46836;BME280;32573;51.290;6.926;2023-10-08T12:04:46;101130.56;;;19.47;100.00
46836;BME280;32573;51.290;6.926;2023-10-08T12:07:18;101128.78;;;19.49;100.00
46836;BME280;32573;51.290;6.926;2023-10-08T12:09:49;101122.59;;;19.49;100.00
46836;BME280;32573;51.290;6.926;2023-10-08T12:12:23;101121.69;;;19.48;100.00
46836;BME280;32573;51.290;6.926;2023-10-08T12:14:52;101123.44;;;19.46;100.00
46836;BME280;32573;51.290;6.926;2023-10-08T12:17:24;101121.69;;;19.45;100.00
46836;BME280;32573;51.290;6.926;2023-10-08T12:20:10;101123.44;;;19.43;100.00
46836;BME280;32573;51.290;6.926;2023-10-08T12:22:56;101111.94;;;19.46;100.00
46836;BME280;32573;51.290;6.926;2023-10-08T12:25:27;101117.28;;;19.49;100.00
46836;BME280;32573;51.290;6.926;2023-10-08T12:28:01;101125.25;;;19.50;100.00
46836;BME280;32573;51.290;6.926;2023-10-08T12:30:33;101124.38;;;19.51;100.00
46836;BME280;32573;51.290;6.926;2023-10-08T12:33:10;101120.84;;;19.52;100.00
46836;BME280;32573;51.290;6.926;2023-10-08T12:35:43;101118.19;;;19.52;100.00
46836;BME280;32573;51.290;6.926;2023-10-08T12:38:13;101113.75;;;19.51;100.00
46836;BME280;32573;51.290;6.926;2023-10-08T12:40:44;101116.38;;;19.48;100.00
46836;BME280;32573;51.290;6.926;2023-10-08T12:43:22;101119.06;;;19.50;100.00
46836;BME280;32573;51.290;6.926;2023-10-08T12:45:56;101094.25;;;19.49;100.00
46836;BME280;32573;51.290;6.926;2023-10-08T12:48:27;101081.84;;;19.47;100.00
46836;BME280;32573;51.290;6.926;2023-10-08T12:50:58;101089.84;;;19.48;100.00
46836;BME280;32573;51.290;6.926;2023-10-08T12:53:29;101079.22;;;19.48;100.00
46836;BME280;32573;51.290;6.926;2023-10-08T12:56:04;101086.28;;;19.49;100.00
46836;BME280;32573;51.290;6.926;2023-10-08T12:58:36;101068.59;;;19.48;100.00
46836;BME280;32573;51.290;6.926;2023-10-08T13:01:10;101080.97;;;19.48;100.00
46836;BME280;32573;51.290;6.926;2023-10-08T13:03:45;101096.00;;;19.46;100.00
46836;BME280;32573;51.290;6.926;2023-10-08T13:06:20;101065.91;;;19.42;100.00
46836;BME280;32573;51.290;6.926;2023-10-08T13:08:57;101078.28;;;19.42;100.00
46836;BME280;32573;51.290;6.926;2023-10-08T13:11:28;101076.50;;;19.40;100.00
46836;BME280;32573;51.290;6.926;2023-10-08T13:14:03;101083.59;;;19.40;100.00
46836;BME280;32573;51.290;6.926;2023-10-08T13:16:34;101097.75;;;19.40;100.00
46836;BME280;32573;51.290;6.926;2023-10-08T13:19:06;101063.22;;;19.39;100.00
46836;BME280;32573;51.290;6.926;2023-10-08T13:21:39;101057.00;;;19.38;100.00
46836;BME280;32573;51.290;6.926;2023-10-08T13:24:09;101074.72;;;19.38;100.00